Time;durP1;ratioP1;P1;durP2;ratioP2;P2;SDS_P1;SDS_P2;PMS_P1;PMS_P2;Temp;Humidity;BMP_temperature;BMP_pressure;BME280_temperature;BME280_humidity;BME280_pressure;Samples;Min_cycle;Max_cycle;Signal;HPM_P1;HPM_P2
2023/06/11 00:02:11;;;;;;;14.38;9.13;;;;;;;23.19;51.14;101315.06;5092003;28;20073;-62
2023/06/11 00:04:37;;;;;;;13.60;8.32;;;;;;;23.18;51.68;101317.91;5114589;28;20030;-62
2023/06/11 00:07:05;;;;;;;15.73;8.98;;;;;;;23.06;52.03;101320.97;5114893;28;20023;-62
2023/06/11 00:09:33;;;;;;;12.65;8.82;;;;;;;23.01;52.89;101319.78;5095872;28;20466;-62
2023/06/11 00:11:58;;;;;;;13.05;8.68;;;;;;;22.94;52.79;101315.97;5113628;28;20023;-62
2023/06/11 00:14:24;;;;;;;12.73;8.55;;;;;;;22.86;53.29;101322.25;5112642;28;20539;-62
2023/06/11 00:16:50;;;;;;;9.60;8.23;;;;;;;22.74;53.82;101312.75;5114017;27;20034;-62
2023/06/11 00:19:19;;;;;;;17.35;8.75;;;;;;;22.81;52.90;101311.88;5114615;28;20016;-62
2023/06/11 00:21:45;;;;;;;12.32;9.13;;;;;;;22.72;53.25;101317.47;5114584;28;20019;-62
2023/06/11 00:24:16;;;;;;;12.13;8.55;;;;;;;22.80;53.27;101312.06;5114058;28;20010;-62
2023/06/11 00:26:42;;;;;;;14.18;9.25;;;;;;;22.85;52.86;101307.84;5114712;28;20447;-62
2023/06/11 00:29:08;;;;;;;13.75;9.32;;;;;;;22.73;52.68;101300.16;5114192;28;20067;-62
2023/06/11 00:31:34;;;;;;;12.38;9.60;;;;;;;22.75;53.48;101301.72;5111563;28;20028;-62
2023/06/11 00:34:01;;;;;;;14.23;8.88;;;;;;;22.75;53.51;101307.13;5114404;27;20459;-62
2023/06/11 00:36:26;;;;;;;10.10;8.90;;;;;;;22.81;52.92;101301.03;5110476;28;20047;-62
2023/06/11 00:38:55;;;;;;;15.13;9.40;;;;;;;22.74;53.35;101304.59;5111774;28;20395;-62
2023/06/11 00:41:24;;;;;;;;;;;;;;;22.94;52.23;101308.69;5114362;28;20077;-62
2023/06/11 00:43:52;;;;;;;14.15;8.68;;;;;;;22.60;54.18;101308.78;5114029;28;19908;-62
2023/06/11 00:46:18;;;;;;;11.57;8.45;;;;;;;22.66;54.08;101308.13;5110995;28;20449;-62
2023/06/11 00:48:44;;;;;;;15.43;8.98;;;;;;;22.48;54.78;101297.38;5084704;28;20031;-62
2023/06/11 00:51:10;;;;;;;10.80;8.80;;;;;;;22.52;54.10;101300.63;5114499;27;20512;-62
2023/06/11 00:53:36;;;;;;;14.10;9.63;;;;;;;22.49;54.35;101307.22;5095366;28;20100;-62
2023/06/11 00:56:02;;;;;;;11.15;9.02;;;;;;;22.44;54.86;101310.44;5114243;28;20419;-62
2023/06/11 00:58:33;;;;;;;13.95;9.50;;;;;;;22.52;54.51;101315.00;5113590;28;20085;-62
2023/06/11 01:01:00;;;;;;;10.60;8.80;;;;;;;22.42;55.22;101301.59;5113322;28;20023;-62
2023/06/11 01:03:27;;;;;;;11.50;9.35;;;;;;;22.21;55.95;101304.72;5106870;28;20030;-62
2023/06/11 01:06:11;;;;;;;10.68;9.50;;;;;;;22.35;55.25;101305.94;5112810;28;20482;-62
2023/06/11 01:08:38;;;;;;;10.27;9.27;;;;;;;22.25;56.14;101313.38;5082277;28;20036;-62
2023/06/11 01:11:08;;;;;;;15.80;10.10;;;;;;;22.15;56.57;101312.63;5113267;28;20486;-62
2023/06/11 01:13:36;;;;;;;12.82;9.43;;;;;;;22.05;56.72;101306.44;5109388;28;20024;-62
2023/06/11 01:16:12;;;;;;;10.15;9.25;;;;;;;22.13;56.57;101309.22;5094529;28;20089;-62
2023/06/11 01:18:53;;;;;;;10.85;9.45;;;;;;;21.96;57.49;101310.97;5095071;28;20019;-62
2023/06/11 01:21:24;;;;;;;11.98;9.38;;;;;;;21.82;57.93;101314.25;5111760;28;20027;-64
2023/06/11 01:24:11;;;;;;;10.32;9.35;;;;;;;21.88;57.67;101319.03;5093894;28;20035;-62
2023/06/11 01:26:39;;;;;;;11.30;10.18;;;;;;;21.84;57.85;101307.69;5113712;27;20016;-62
2023/06/11 01:29:08;;;;;;;11.90;9.93;;;;;;;21.81;58.34;101316.13;5094892;28;20031;-62
2023/06/11 01:31:37;;;;;;;10.95;9.50;;;;;;;21.60;58.57;101302.94;5112727;28;20073;-62
2023/06/11 01:34:04;;;;;;;10.95;9.82;;;;;;;21.77;57.98;101309.34;5113094;28;20103;-61
2023/06/11 01:36:34;;;;;;;12.60;9.80;;;;;;;21.64;58.70;101300.75;5112246;28;20051;-61
2023/06/11 01:39:01;;;;;;;15.38;10.48;;;;;;;21.54;59.22;101301.72;5111770;28;20024;-62
2023/06/11 01:41:27;;;;;;;12.43;10.93;;;;;;;21.40;59.60;101304.13;5114818;27;20110;-62
2023/06/11 01:43:53;;;;;;;14.52;10.70;;;;;;;21.36;59.82;101318.97;5108796;28;20112;-62
2023/06/11 01:46:21;;;;;;;12.00;10.82;;;;;;;21.23;59.99;101298.53;5091302;28;20059;-62
2023/06/11 01:48:46;;;;;;;11.98;10.70;;;;;;;21.46;59.42;101311.63;5091916;28;20065;-62
2023/06/11 01:51:14;;;;;;;13.63;11.05;;;;;;;21.51;58.92;101304.75;5073598;28;20067;-62
2023/06/11 01:53:40;;;;;;;16.20;11.05;;;;;;;21.54;58.99;101311.69;5092563;28;20024;-62
2023/06/11 01:56:06;;;;;;;13.35;11.38;;;;;;;21.57;58.88;101315.94;5092288;28;20038;-62
2023/06/11 01:58:32;;;;;;;12.15;10.45;;;;;;;21.41;59.56;101303.97;5075011;27;20024;-62
2023/06/11 02:00:58;;;;;;;12.52;11.13;;;;;;;21.41;59.68;101311.22;5073431;28;20024;-62
2023/06/11 02:03:23;;;;;;;13.20;11.05;;;;;;;21.48;59.30;101313.19;5092264;28;20387;-62
2023/06/11 02:05:49;;;;;;;13.45;10.80;;;;;;;21.59;58.68;101314.78;5107578;28;20078;-62
2023/06/11 02:08:14;;;;;;;15.55;11.88;;;;;;;21.47;59.09;101311.47;5098027;28;20103;-62
2023/06/11 02:10:41;;;;;;;13.05;11.75;;;;;;;21.54;58.82;101317.13;5093969;28;20019;-62
2023/06/11 02:13:07;;;;;;;13.35;11.98;;;;;;;21.48;59.06;101315.88;5088078;28;20051;-62
2023/06/11 02:15:32;;;;;;;12.55;11.15;;;;;;;21.38;60.07;101316.97;5099465;28;20450;-62
2023/06/11 02:17:57;;;;;;;14.18;12.80;;;;;;;21.43;59.33;101303.81;5110962;28;20089;-62
2023/06/11 02:20:23;;;;;;;13.00;11.10;;;;;;;21.36;60.34;101319.84;5111743;28;20378;-62
2023/06/11 02:22:50;;;;;;;13.38;11.98;;;;;;;21.42;59.50;101318.38;5111105;28;20019;-62
2023/06/11 02:25:16;;;;;;;13.48;11.80;;;;;;;21.36;60.05;101325.25;5109894;28;20031;-62
2023/06/11 02:27:41;;;;;;;16.65;11.93;;;;;;;21.24;60.26;101315.66;5105637;28;20034;-62
2023/06/11 02:30:07;;;;;;;16.35;11.65;;;;;;;21.32;60.26;101315.69;5073199;28;20031;-62
2023/06/11 02:32:33;;;;;;;13.02;11.73;;;;;;;21.27;60.61;101323.44;5078200;28;20038;-61
2023/06/11 02:34:58;;;;;;;15.27;12.60;;;;;;;21.33;60.23;101318.25;5108541;28;20043;-62
2023/06/11 02:37:23;;;;;;;13.38;11.98;;;;;;;21.16;60.65;101321.81;5093441;28;20436;-61
2023/06/11 02:39:49;;;;;;;13.52;12.15;;;;;;;21.09;61.21;101318.88;5111993;28;20044;-62
2023/06/11 02:42:14;;;;;;;14.30;11.88;;;;;;;20.96;62.09;101326.50;5112416;28;20650;-62
2023/06/11 02:44:39;;;;;;;15.10;12.45;;;;;;;20.97;61.87;101327.34;5111516;28;20054;-62
2023/06/11 02:47:05;;;;;;;16.27;12.50;;;;;;;20.82;62.40;101317.09;5112102;28;20024;-61
2023/06/11 02:49:30;;;;;;;12.85;11.65;;;;;;;20.84;62.39;101316.91;5093688;28;20084;-62
2023/06/11 02:51:56;;;;;;;15.73;11.95;;;;;;;20.61;63.07;101316.47;5101851;28;20077;-61
2023/06/11 02:54:21;;;;;;;13.00;11.70;;;;;;;20.64;63.02;101310.75;5112113;28;20102;-62
2023/06/11 02:56:49;;;;;;;17.60;12.65;;;;;;;20.75;62.97;101315.97;5105666;28;20016;-62
2023/06/11 02:59:14;;;;;;;14.20;12.70;;;;;;;20.61;63.27;101327.28;5088379;28;20399;-61
2023/06/11 03:01:40;;;;;;;13.57;11.95;;;;;;;20.70;62.90;101322.84;5095586;28;20026;-62
2023/06/11 03:04:06;;;;;;;16.25;12.15;;;;;;;20.73;63.36;101325.22;5108992;28;20031;-62
2023/06/11 03:06:35;;;;;;;15.35;12.52;;;;;;;20.63;63.76;101319.88;5086916;28;20528;-62
2023/06/11 03:09:00;;;;;;;;;;;;;;;20.83;61.43;101324.19;5097029;28;20032;-62
2023/06/11 03:11:25;;;;;;;13.77;12.18;;;;;;;20.42;63.90;101317.41;5077156;28;20002;-62
2023/06/11 03:13:51;;;;;;;14.65;12.57;;;;;;;20.36;64.60;101324.25;5096437;28;20027;-62
2023/06/11 03:16:16;;;;;;;14.25;12.75;;;;;;;20.50;63.82;101322.03;5088822;28;20050;-62
2023/06/11 03:18:43;;;;;;;15.65;12.38;;;;;;;20.61;63.85;101330.84;5113969;28;20035;-62
2023/06/11 03:21:09;;;;;;;13.88;12.45;;;;;;;20.51;63.95;101329.19;5115579;28;20023;-62
2023/06/11 03:23:37;;;;;;;14.18;12.13;;;;;;;20.52;64.37;101325.47;5113536;28;20114;-62
2023/06/11 03:26:03;;;;;;;17.90;13.45;;;;;;;20.42;64.19;101331.75;5094854;28;20081;-62
2023/06/11 03:28:28;;;;;;;20.27;13.23;;;;;;;20.34;65.05;101320.84;5114114;28;20015;-62
2023/06/11 03:30:53;;;;;;;14.35;12.00;;;;;;;20.37;64.61;101328.66;5094706;28;20028;-62
2023/06/11 03:33:19;;;;;;;19.13;13.75;;;;;;;20.36;64.68;101321.56;5096042;28;20023;-63
2023/06/11 03:35:44;;;;;;;19.70;13.80;;;;;;;20.29;65.24;101333.09;5114449;28;20015;-62
2023/06/11 03:38:10;;;;;;;14.98;13.43;;;;;;;20.33;65.17;101326.41;5114617;28;20044;-62
2023/06/11 03:40:35;;;;;;;21.83;14.48;;;;;;;20.26;65.67;101326.13;5086706;28;20486;-62
2023/06/11 03:43:00;;;;;;;15.95;14.27;;;;;;;20.26;65.89;101334.22;5109460;28;20030;-62
2023/06/11 03:45:26;;;;;;;16.45;14.68;;;;;;;20.07;66.02;101324.38;5094334;28;20383;-62
2023/06/11 03:47:55;;;;;;;16.00;14.35;;;;;;;20.17;65.50;101335.97;5109136;28;20027;-62
2023/06/11 03:50:21;;;;;;;21.55;14.77;;;;;;;20.18;65.73;101337.69;5112986;28;20655;-62
2023/06/11 03:52:47;;;;;;;19.65;15.73;;;;;;;20.22;65.50;101326.59;5114775;28;20062;-62
2023/06/11 03:55:15;;;;;;;20.00;15.25;;;;;;;20.14;66.00;101327.31;5114234;28;20032;-62
2023/06/11 03:57:41;;;;;;;16.70;15.05;;;;;;;20.26;65.42;101325.28;5078638;28;20039;-62
2023/06/11 04:00:07;;;;;;;19.35;15.40;;;;;;;20.23;65.47;101326.44;5107422;28;20024;-62
2023/06/11 04:02:34;;;;;;;16.00;13.95;;;;;;;20.35;65.18;101335.19;5110181;27;20070;-62
2023/06/11 04:05:01;;;;;;;18.67;15.20;;;;;;;20.28;65.69;101334.94;5095390;28;20470;-62
2023/06/11 04:07:26;;;;;;;17.95;15.35;;;;;;;20.31;65.63;101337.34;5079289;28;20039;-62
2023/06/11 04:09:54;;;;;;;17.17;15.05;;;;;;;20.23;66.15;101339.94;5093836;28;20034;-62
2023/06/11 04:12:19;;;;;;;17.73;16.02;;;;;;;20.29;65.50;101341.19;5113497;28;20028;-62
2023/06/11 04:14:47;;;;;;;16.80;14.75;;;;;;;20.33;65.89;101342.63;5090163;28;20114;-62
2023/06/11 04:17:15;;;;;;;16.17;14.50;;;;;;;20.28;65.76;101331.41;5113284;28;20088;-62
2023/06/11 04:19:40;;;;;;;16.23;14.73;;;;;;;20.32;65.83;101340.91;5113449;28;20119;-62
2023/06/11 04:22:05;;;;;;;16.30;14.70;;;;;;;20.15;66.86;101343.38;5094375;28;20157;-62
2023/06/11 04:24:31;;;;;;;16.63;14.95;;;;;;;20.29;66.40;101335.78;5113215;28;20031;-62
2023/06/11 04:26:56;;;;;;;16.52;14.93;;;;;;;20.41;66.22;101346.28;5108702;28;20016;-62
2023/06/11 04:29:23;;;;;;;18.95;15.85;;;;;;;20.37;65.47;101346.72;5084812;28;20059;-62
2023/06/11 04:31:50;;;;;;;18.70;15.15;;;;;;;20.42;66.25;101353.38;5096707;28;20096;-62
2023/06/11 04:34:17;;;;;;;17.75;15.43;;;;;;;20.50;65.93;101347.25;5113496;28;20019;-62
2023/06/11 04:36:45;;;;;;;16.42;14.93;;;;;;;20.44;66.21;101345.09;5113246;28;20024;-61
2023/06/11 04:39:11;;;;;;;19.80;14.90;;;;;;;20.55;65.02;101347.66;5113161;28;20042;-62
2023/06/11 04:41:37;;;;;;;17.98;15.65;;;;;;;20.51;66.32;101345.38;5076957;28;20040;-62
2023/06/11 04:44:03;;;;;;;17.50;15.80;;;;;;;20.61;65.06;101348.91;5110461;28;20051;-62
2023/06/11 04:46:32;;;;;;;17.98;15.65;;;;;;;20.66;65.03;101352.03;5111498;28;20486;-62
2023/06/11 04:48:59;;;;;;;19.38;15.65;;;;;;;20.68;64.73;101354.56;5094990;28;20019;-62
2023/06/11 04:51:25;;;;;;;18.77;16.70;;;;;;;20.73;64.46;101346.84;5104069;28;20442;-62
2023/06/11 04:53:52;;;;;;;18.65;15.93;;;;;;;20.78;64.85;101352.69;5112151;28;20028;-62
2023/06/11 04:56:17;;;;;;;20.38;16.30;;;;;;;20.80;65.03;101350.69;5112799;28;20550;-63
2023/06/11 04:58:42;;;;;;;17.92;16.17;;;;;;;20.74;64.74;101351.28;5111217;28;20146;-61
2023/06/11 05:01:08;;;;;;;19.55;16.67;;;;;;;20.77;64.68;101353.69;5113386;28;20032;-61
2023/06/11 05:03:37;;;;;;;18.70;16.83;;;;;;;20.78;64.58;101363.50;5095110;28;20028;-62
2023/06/11 05:06:04;;;;;;;19.27;17.17;;;;;;;20.85;64.68;101353.75;5108054;28;20158;-62
2023/06/11 05:08:29;;;;;;;18.52;16.58;;;;;;;20.80;65.89;101358.78;5112882;28;20030;-62
2023/06/11 05:10:58;;;;;;;20.13;16.83;;;;;;;20.90;64.11;101350.63;5093282;28;20031;-62
2023/06/11 05:13:26;;;;;;;;;;;;;;;21.04;63.52;101361.75;5097589;28;20032;-62
2023/06/11 05:15:58;;;;;;;19.88;17.73;;;;;;;20.99;63.77;101364.06;5074948;28;19912;-62
2023/06/11 05:18:25;;;;;;;18.60;16.77;;;;;;;20.89;63.69;101368.69;5111193;28;20390;-62
2023/06/11 05:20:51;;;;;;;18.63;16.92;;;;;;;20.86;64.25;101369.00;5093181;28;20023;-62
2023/06/11 05:23:18;;;;;;;23.52;17.85;;;;;;;20.93;63.55;101361.97;5093430;28;20028;-62
2023/06/11 05:25:50;;;;;;;19.65;17.75;;;;;;;20.89;63.97;101363.28;5111084;28;20028;-62
2023/06/11 05:28:16;;;;;;;21.35;16.85;;;;;;;21.02;63.54;101369.16;5113121;28;20024;-62
2023/06/11 05:30:45;;;;;;;18.60;16.30;;;;;;;21.04;63.67;101361.75;5098455;28;20034;-62
2023/06/11 05:33:13;;;;;;;19.35;16.92;;;;;;;21.11;63.60;101364.69;5113361;28;20030;-62
2023/06/11 05:35:40;;;;;;;18.00;16.30;;;;;;;21.19;63.27;101370.19;5112164;28;20031;-62
2023/06/11 05:38:08;;;;;;;18.23;15.55;;;;;;;21.15;64.29;101360.69;5093924;28;20406;-62
2023/06/11 05:40:35;;;;;;;17.13;15.35;;;;;;;21.29;63.48;101370.97;5108913;28;20031;-62
2023/06/11 05:43:00;;;;;;;18.75;15.95;;;;;;;21.27;63.49;101364.03;5110924;28;20387;-61
2023/06/11 05:45:31;;;;;;;18.27;15.18;;;;;;;21.39;63.69;101370.94;5093337;28;20041;-62
2023/06/11 05:47:56;;;;;;;15.30;13.95;;;;;;;21.42;63.53;101373.34;5093843;28;20022;-62
2023/06/11 05:50:25;;;;;;;15.10;13.65;;;;;;;21.51;62.79;101349.91;5111421;28;20028;-62
2023/06/11 05:52:50;;;;;;;17.23;12.77;;;;;;;21.54;62.33;101353.16;5093511;28;20016;-62
2023/06/11 05:55:16;;;;;;;14.93;13.25;;;;;;;21.72;62.10;101354.97;5112774;28;20344;-62
2023/06/11 05:57:41;;;;;;;15.10;12.13;;;;;;;21.76;61.44;101361.78;5110733;28;20364;-62
2023/06/11 06:00:10;;;;;;;12.88;11.57;;;;;;;21.89;60.67;101359.53;5106392;28;20605;-62
2023/06/11 06:02:35;;;;;;;17.38;11.98;;;;;;;21.99;60.69;101357.53;5110342;28;20471;-62
2023/06/11 06:05:00;;;;;;;12.88;11.10;;;;;;;22.13;59.79;101364.25;5110590;28;20084;-62
2023/06/11 06:07:26;;;;;;;12.00;10.68;;;;;;;22.16;60.01;101363.94;5112494;28;20364;-62
2023/06/11 06:09:53;;;;;;;12.55;11.35;;;;;;;22.21;59.88;101360.78;5094093;28;20114;-62
2023/06/11 06:12:22;;;;;;;13.10;11.25;;;;;;;22.32;59.61;101363.19;5112143;28;20019;-61
2023/06/11 06:14:47;;;;;;;11.77;10.55;;;;;;;22.42;59.25;101363.94;5122807;27;20027;-62
2023/06/11 06:17:12;;;;;;;13.15;10.68;;;;;;;22.55;58.79;101371.63;5132760;27;20106;-62
2023/06/11 06:19:38;;;;;;;11.75;10.48;;;;;;;22.59;58.42;101370.31;5133010;27;20019;-62
2023/06/11 06:22:04;;;;;;;11.75;10.65;;;;;;;22.61;57.99;101373.69;5106705;28;20015;-62
2023/06/11 06:24:29;;;;;;;12.85;10.63;;;;;;;22.64;58.57;101370.66;5109158;28;20027;-61
2023/06/11 06:26:56;;;;;;;11.07;9.82;;;;;;;22.73;58.37;101378.81;5094009;28;20107;-61
2023/06/11 06:29:28;;;;;;;13.27;10.77;;;;;;;22.84;58.30;101384.78;5102647;28;20043;-62
2023/06/11 06:31:54;;;;;;;12.00;10.35;;;;;;;22.96;58.44;101385.38;5091151;28;20103;-62
2023/06/11 06:34:19;;;;;;;12.60;10.00;;;;;;;22.93;58.12;101372.13;5091952;28;20043;-61
2023/06/11 06:36:45;;;;;;;10.05;9.13;;;;;;;23.04;57.70;101379.13;5073669;28;20102;-61
2023/06/11 06:39:11;;;;;;;11.10;9.45;;;;;;;23.17;56.82;101375.94;5073403;28;20047;-61
2023/06/11 06:41:36;;;;;;;13.30;10.30;;;;;;;23.30;56.93;101382.59;5100855;28;20027;-62
2023/06/11 06:44:01;;;;;;;10.90;9.90;;;;;;;23.44;56.50;101388.38;5093954;28;20051;-62
2023/06/11 06:46:27;;;;;;;12.00;10.02;;;;;;;23.51;56.44;101382.09;5093244;28;20390;-62
2023/06/11 06:48:52;;;;;;;12.60;9.20;;;;;;;23.60;55.74;101387.56;5112244;28;20046;-62
2023/06/11 06:51:20;;;;;;;10.65;9.40;;;;;;;23.67;55.64;101377.69;5112123;28;20038;-62
2023/06/11 06:53:47;;;;;;;12.43;9.60;;;;;;;23.85;55.33;101378.38;5091521;28;20023;-62
2023/06/11 06:56:13;;;;;;;12.05;9.32;;;;;;;23.92;54.42;101384.00;5111816;28;20106;-62
2023/06/11 06:58:38;;;;;;;11.82;9.10;;;;;;;23.96;54.52;101379.94;5112538;28;20072;-62
2023/06/11 07:01:04;;;;;;;10.65;9.13;;;;;;;23.99;53.59;101375.00;5110146;28;20409;-62
2023/06/11 07:03:30;;;;;;;11.55;10.35;;;;;;;23.94;53.84;101379.25;5111953;28;20051;-62
2023/06/11 07:05:55;;;;;;;13.27;9.60;;;;;;;23.97;54.20;101370.75;5112008;28;20018;-62
2023/06/11 07:08:21;;;;;;;10.68;9.57;;;;;;;24.07;54.76;101379.56;5103672;28;20459;-62
2023/06/11 07:10:50;;;;;;;10.57;9.20;;;;;;;24.20;53.59;101373.59;5091330;28;20035;-62
2023/06/11 07:13:16;;;;;;;10.70;9.70;;;;;;;24.32;52.94;101384.94;5098706;28;20030;-62
2023/06/11 07:15:44;;;;;;;11.68;8.77;;;;;;;24.47;53.40;101378.66;5074627;28;20027;-62
2023/06/11 07:18:09;;;;;;;12.18;8.90;;;;;;;24.65;52.50;101386.59;5107195;28;20023;-62
2023/06/11 07:20:35;;;;;;;13.35;9.10;;;;;;;24.77;52.49;101386.22;5091454;28;20020;-62
2023/06/11 07:23:00;;;;;;;14.00;9.10;;;;;;;24.64;52.42;101384.03;5091334;28;20356;-62
2023/06/11 07:25:30;;;;;;;12.57;9.40;;;;;;;24.77;51.91;101384.34;5123761;28;20035;-62
2023/06/11 07:27:56;;;;;;;10.35;9.30;;;;;;;24.79;51.96;101381.41;5093448;28;20046;-63
2023/06/11 07:30:21;;;;;;;12.32;8.80;;;;;;;24.87;51.69;101384.13;5110184;28;20474;-62
2023/06/11 07:32:47;;;;;;;13.75;8.45;;;;;;;25.04;51.96;101385.72;5111910;28;20050;-62
2023/06/11 07:35:12;;;;;;;10.88;8.82;;;;;;;25.15;51.68;101393.53;5093422;28;20080;-62
2023/06/11 07:37:38;;;;;;;9.05;8.25;;;;;;;25.29;50.84;101391.88;5110504;28;20517;-62
2023/06/11 07:40:05;;;;;;;10.40;8.80;;;;;;;25.42;50.87;101385.88;5093007;28;20020;-62
2023/06/11 07:42:30;;;;;;;9.63;8.70;;;;;;;25.41;51.05;101388.75;5111498;28;20023;-62
2023/06/11 07:44:56;;;;;;;9.95;8.32;;;;;;;25.54;50.59;101384.41;5112703;28;20028;-62
2023/06/11 07:47:21;;;;;;;10.35;8.50;;;;;;;25.70;49.74;101382.56;5096405;28;20047;-62
2023/06/11 07:49:46;;;;;;;10.98;8.57;;;;;;;25.87;50.00;101396.94;5113841;28;20023;-62
2023/06/11 07:52:12;;;;;;;9.57;7.80;;;;;;;26.04;48.82;101387.59;5084690;28;20032;-62
2023/06/11 07:54:38;;;;;;;10.63;8.80;;;;;;;26.08;48.36;101383.44;5094519;28;20261;-62
2023/06/11 07:57:06;;;;;;;9.70;8.52;;;;;;;25.91;49.03;101388.19;5110448;28;20020;-62
2023/06/11 07:59:32;;;;;;;9.70;8.70;;;;;;;26.13;48.31;101391.09;5092978;28;20487;-62
2023/06/11 08:01:57;;;;;;;10.77;8.77;;;;;;;26.32;48.46;101387.78;5094524;28;20031;-62
2023/06/11 08:04:22;;;;;;;8.48;7.68;;;;;;;26.32;49.40;101390.53;5110308;28;20031;-63
2023/06/11 08:06:48;;;;;;;9.07;8.25;;;;;;;26.42;48.78;101387.53;5104153;28;20027;-62
2023/06/11 08:09:13;;;;;;;8.45;7.72;;;;;;;26.54;49.56;101382.50;5104948;28;20038;-61
2023/06/11 08:11:41;;;;;;;9.07;8.25;;;;;;;26.48;49.60;101381.31;5094660;28;20059;-61
2023/06/11 08:14:07;;;;;;;11.27;8.73;;;;;;;26.50;48.83;101380.13;5095488;28;20036;-62
2023/06/11 08:16:32;;;;;;;13.88;8.45;;;;;;;26.62;49.29;101385.09;5109342;28;20490;-62
2023/06/11 08:19:00;;;;;;;10.95;8.10;;;;;;;26.70;49.26;101391.31;5094524;28;20020;-62
2023/06/11 08:21:25;;;;;;;9.65;8.43;;;;;;;26.56;47.73;101388.59;5075889;28;20463;-64
2023/06/11 08:23:51;;;;;;;10.48;8.00;;;;;;;26.78;47.68;101387.63;5078808;28;20054;-63
2023/06/11 08:26:17;;;;;;;10.10;8.13;;;;;;;26.71;48.45;101384.81;5079417;28;20046;-63
2023/06/11 08:28:43;;;;;;;13.52;8.02;;;;;;;26.91;48.41;101384.22;5114635;28;20428;-64
2023/06/11 08:31:08;;;;;;;10.73;8.15;;;;;;;26.83;48.03;101382.47;5094128;28;20126;-63
2023/06/11 08:33:33;;;;;;;9.13;8.23;;;;;;;27.07;49.07;101384.00;5113163;28;20027;-62
2023/06/11 08:35:59;;;;;;;8.60;7.65;;;;;;;27.08;48.59;101376.66;5114324;28;20043;-64
2023/06/11 08:38:28;;;;;;;9.00;8.13;;;;;;;27.07;48.12;101383.16;5113701;28;20513;-64
2023/06/11 08:40:53;;;;;;;9.15;8.30;;;;;;;27.10;47.78;101380.88;5105149;28;20027;-63
2023/06/11 08:43:19;;;;;;;9.18;7.88;;;;;;;27.29;48.77;101378.59;5113982;28;20030;-63
2023/06/11 08:45:45;;;;;;;13.25;7.80;;;;;;;27.16;46.64;101376.56;5112503;28;20020;-63
2023/06/11 08:48:12;;;;;;;10.95;8.55;;;;;;;27.20;47.94;101369.66;5100242;28;20015;-64
2023/06/11 08:50:38;;;;;;;8.55;7.60;;;;;;;27.33;47.55;101367.09;5114016;28;20027;-67
2023/06/11 08:53:07;;;;;;;9.15;8.25;;;;;;;27.23;46.60;101357.50;5113052;28;20481;-68
2023/06/11 08:55:32;;;;;;;8.10;7.30;;;;;;;27.34;46.58;101362.47;5112954;28;20075;-66
2023/06/11 08:57:58;;;;;;;8.82;7.85;;;;;;;27.49;46.94;101363.25;5114336;28;20027;-67
2023/06/11 09:00:23;;;;;;;8.93;8.02;;;;;;;27.49;46.88;101363.25;5113627;28;20516;-67
2023/06/11 09:02:50;;;;;;;8.48;7.63;;;;;;;27.66;47.76;101360.25;5108699;28;20030;-63
2023/06/11 09:05:16;;;;;;;8.98;8.10;;;;;;;27.70;46.92;101351.44;5109094;28;20118;-63
2023/06/11 09:07:51;;;;;;;9.07;7.50;;;;;;;27.81;45.92;101356.41;5113679;28;20114;-64
2023/06/11 09:10:17;;;;;;;10.52;7.20;;;;;;;27.77;45.43;101355.09;5093820;28;20118;-64
2023/06/11 09:12:45;;;;;;;9.77;7.25;;;;;;;27.81;45.23;101361.03;5114451;28;20103;-64
2023/06/11 09:15:12;;;;;;;10.52;7.15;;;;;;;27.92;44.95;101352.31;5113464;28;20027;-64
2023/06/11 09:17:40;;;;;;;11.48;6.70;;;;;;;27.79;44.69;101363.97;5095586;28;20080;-64
2023/06/11 09:20:11;;;;;;;7.30;6.70;;;;;;;27.84;44.36;101353.28;5113353;28;20028;-64
2023/06/11 09:22:38;;;;;;;9.38;7.50;;;;;;;27.98;43.88;101356.97;5130897;27;20042;-64
2023/06/11 09:25:09;;;;;;;16.00;7.47;;;;;;;28.04;44.17;101352.59;5119676;27;20023;-64
2023/06/11 09:27:38;;;;;;;7.90;6.60;;;;;;;28.18;43.74;101354.38;5117387;27;20098;-65
2023/06/11 09:30:15;;;;;;;8.30;7.30;;;;;;;28.32;44.94;101355.28;5133564;27;20420;-64
2023/06/11 09:32:42;;;;;;;8.13;7.38;;;;;;;28.42;43.98;101352.22;5133780;27;20023;-64
2023/06/11 09:35:09;;;;;;;11.75;7.50;;;;;;;28.49;43.75;101358.56;5115145;27;20434;-64
2023/06/11 09:37:46;;;;;;;7.70;6.70;;;;;;;28.51;44.39;101351.84;5106571;28;20035;-64
2023/06/11 09:40:17;;;;;;;9.50;6.78;;;;;;;28.58;44.07;101357.34;5112475;28;20073;-69
2023/06/11 09:42:46;;;;;;;9.52;7.07;;;;;;;28.75;43.11;101357.84;5093797;28;20027;-66
2023/06/11 09:45:17;;;;;;;8.18;6.70;;;;;;;28.75;42.63;101355.13;5094056;28;20110;-69
2023/06/11 09:47:47;;;;;;;11.35;6.95;;;;;;;28.63;42.97;101348.53;5094562;28;20466;-67
2023/06/11 09:50:17;;;;;;;9.75;6.90;;;;;;;28.69;43.10;101345.81;5083237;28;20051;-64
2023/06/11 09:52:46;;;;;;;9.85;6.88;;;;;;;28.78;43.02;101360.19;5093019;28;20034;-63
2023/06/11 09:55:12;;;;;;;7.55;6.50;;;;;;;28.90;41.90;101357.69;5108026;28;20115;-65
2023/06/11 09:57:42;;;;;;;9.45;6.38;;;;;;;28.93;42.15;101357.28;5108336;28;20209;-65
2023/06/11 10:00:11;;;;;;;6.95;6.03;;;;;;;29.07;40.73;101361.78;5091879;28;20028;-60
2023/06/11 10:02:40;;;;;;;7.38;6.45;;;;;;;29.13;40.95;101360.13;5092375;28;20031;-59
2023/06/11 10:05:07;;;;;;;6.85;6.22;;;;;;;29.17;40.54;101355.91;5092022;28;20549;-60
2023/06/11 10:07:39;;;;;;;9.45;6.38;;;;;;;29.13;39.94;101366.44;5103179;28;20106;-59
2023/06/11 10:10:08;;;;;;;8.80;6.20;;;;;;;29.24;39.66;101366.88;5099618;28;20416;-60
2023/06/11 10:12:33;;;;;;;;;;;;;;;29.29;38.91;101365.19;5092929;28;20051;-60
2023/06/11 10:14:59;;;;;;;11.07;6.60;;;;;;;29.25;38.85;101354.88;5082389;28;19942;-64
2023/06/11 10:17:24;;;;;;;8.07;5.57;;;;;;;29.23;38.24;101362.47;5112451;28;20011;-63
2023/06/11 10:19:51;;;;;;;11.07;5.80;;;;;;;29.25;38.82;101372.16;5112278;28;20028;-64
2023/06/11 10:22:33;;;;;;;6.75;6.03;;;;;;;29.30;40.06;101366.91;5112688;28;20038;-63
2023/06/11 10:25:00;;;;;;;8.93;5.78;;;;;;;29.28;39.02;101349.81;5101074;28;20400;-63
2023/06/11 10:27:35;;;;;;;9.75;6.13;;;;;;;29.35;39.26;101349.81;5112338;28;20103;-63
2023/06/11 10:30:01;;;;;;;7.18;5.43;;;;;;;29.43;39.19;101353.22;5089796;28;20120;-64
2023/06/11 10:32:26;;;;;;;9.63;5.78;;;;;;;29.32;37.73;101333.81;5093802;28;20470;-59
2023/06/11 10:34:56;;;;;;;7.03;6.25;;;;;;;29.38;37.87;101354.88;5111473;28;20051;-59
2023/06/11 10:37:33;;;;;;;6.68;6.10;;;;;;;29.48;37.72;101363.56;5094012;28;20394;-59
2023/06/11 10:39:59;;;;;;;8.35;6.10;;;;;;;29.50;38.51;101358.69;5112069;28;20032;-59
2023/06/11 10:42:25;;;;;;;12.32;6.20;;;;;;;29.42;37.43;101346.06;5112120;28;20028;-59
2023/06/11 10:44:56;;;;;;;9.43;6.20;;;;;;;29.54;38.05;101359.16;5111537;28;20031;-59
2023/06/11 10:47:21;;;;;;;6.82;6.22;;;;;;;29.66;38.42;101352.00;5111970;28;20099;-59
2023/06/11 10:49:47;;;;;;;8.52;6.30;;;;;;;29.72;37.89;101350.31;5093892;28;20150;-59
2023/06/11 10:52:13;;;;;;;6.90;6.13;;;;;;;29.70;36.84;101347.78;5093784;28;20035;-59
2023/06/11 10:54:41;;;;;;;6.28;5.68;;;;;;;29.80;36.81;101350.94;5111815;28;20032;-59
2023/06/11 10:57:07;;;;;;;;;;;;;;;29.90;37.27;101342.28;5111897;28;20019;-59
2023/06/11 10:59:33;;;;;;;8.20;5.95;;;;;;;29.86;37.83;101341.03;5092966;28;19916;-59
2023/06/11 11:01:58;;;;;;;6.80;5.47;;;;;;;29.95;37.57;101347.16;5111242;28;20060;-59
2023/06/11 11:04:26;;;;;;;9.98;5.78;;;;;;;29.95;37.15;101348.00;5111734;28;20475;-59
2023/06/11 11:07:08;;;;;;;8.55;5.78;;;;;;;30.03;36.59;101356.00;5111266;28;20016;-60
2023/06/11 11:09:34;;;;;;;8.35;6.10;;;;;;;30.01;37.29;101343.56;5111396;28;20068;-59
2023/06/11 11:11:59;;;;;;;6.78;5.85;;;;;;;29.99;36.25;101331.94;5093761;28;20027;-59
2023/06/11 11:14:27;;;;;;;7.15;5.70;;;;;;;29.88;36.88;101338.91;5093711;28;20355;-60
2023/06/11 11:16:53;;;;;;;7.85;6.35;;;;;;;30.04;36.51;101343.97;5111185;28;20052;-60